Oasis of the Seas — C6XS7 — position and weather

sailwx.info

Track history (hours):
 
Tides and Currents Weather Stations Pressure Air Temp Water Temp Dewpoint Dewpoint Depression Visibility Wind Speed Wind Dir Waves Ship Positions

Oasis of the Seas

Last reported at 2019-Jul-16 01:00 UTC. Time now 2019-Jul-16 10:29 UTC.
Position N 41°54' E 004°00'.

Length 360 m; draft 9.3 m.

Type: Passenger vessel. MMSI: 311020600.

Wind from 350 at 20 knots

Barometer 1013.7 mb
Air temperature 25.0 ° C
Visibility: greater than 27.0 NM
Water temperature 26.0 ° C

Date/timePositionNaut miles runAvg speedWind from/ knotsBaromVisibWave heightAir tempDewpointWater temp
2019-Jul-16 01:00N 41°54' E 004°00'16416.4 350 / 201013.727.0 25.0 26.0
2019-Jul-15 15:01N 39°26' E 002°29'017.9
2019-Jul-15 15:00N 39°26' E 002°29'815.3
2019-Jul-15 14:30N 39°30' E 002°37'3 5.7
2019-Jul-15 14:00N 39°33' E 002°38'0 0.3
2019-Jul-15 13:28N 39°33' E 002°38'0 0.0
2019-Jul-15 12:58N 39°33' E 002°38'0 0.0
2019-Jul-15 12:28N 39°33' E 002°38'0 0.0
2019-Jul-15 11:58N 39°33' E 002°38'0 0.0
2019-Jul-15 11:28N 39°33' E 002°38'0 0.0
2019-Jul-15 10:58N 39°33' E 002°38'0 0.0
2019-Jul-15 10:28N 39°33' E 002°38'0 0.0
2019-Jul-15 09:58N 39°33' E 002°38'0 0.0
2019-Jul-15 09:28N 39°33' E 002°38'0 0.0
2019-Jul-15 08:58N 39°33' E 002°38'0 0.0
2019-Jul-15 08:28N 39°33' E 002°38'0 0.0
2019-Jul-15 07:58N 39°33' E 002°38'0 0.0
2019-Jul-15 07:28N 39°33' E 002°38'0 0.0
2019-Jul-15 06:58N 39°33' E 002°38'0 0.0
2019-Jul-15 06:28N 39°33' E 002°38'0 0.0
2019-Jul-15 05:58N 39°33' E 002°38'0 0.1
2019-Jul-15 05:30N 39°33' E 002°38'1 1.5
2019-Jul-15 05:00N 39°32' E 002°38'510.6
2019-Jul-15 04:30N 39°28' E 002°35'510.2
2019-Jul-15 04:00N 39°24' E 002°31'510.4
2019-Jul-15 03:30N 39°22' E 002°24'610.8
2019-Jul-15 02:57N 39°26' E 002°18'19 9.7
2019-Jul-15 01:00N 39°42' E 002°06'100 8.4 260 / 151011.710.8 25.0 28.0
2019-Jul-14 13:08N 41°22' E 002°11'0 0.0
2019-Jul-14 12:59N 41°22' E 002°11'0 0.0
2019-Jul-14 12:29N 41°22' E 002°11'0 0.0
2019-Jul-14 11:59N 41°22' E 002°11'0 0.0
2019-Jul-14 11:29N 41°22' E 002°11'0 0.0
2019-Jul-14 10:56N 41°22' E 002°11'0 0.0
2019-Jul-14 10:29N 41°22' E 002°11'0 0.0
2019-Jul-14 09:59N 41°22' E 002°11'0 0.0
2019-Jul-14 09:29N 41°22' E 002°11'0 0.0
2019-Jul-14 08:59N 41°22' E 002°11'60 6.0
2019-Jul-13 23:04N 41°14' E 003°29'120.4
2019-Jul-13 23:00N 41°14' E 003°31'6347.2
2019-Jul-13 23:00N 41°12' E 003°24'3023.1 300 / 81011.727.0 25.0 28.0
2019-Jul-13 21:42N 41°14' E 004°04'417.3
2019-Jul-13 21:28N 41°14' E 004°09'32416.6
2019-Jul-13 02:00N 41°00' E 011°18'12316.3 300 / 261009.710.8 25.0 28.0
2019-Jul-12 18:25N 40°36' E 013°58'818.0
2019-Jul-12 18:00N 40°40' E 014°07'917.2
2019-Jul-12 17:30N 40°46' E 014°14'4 8.7
2019-Jul-12 17:00N 40°50' E 014°16'0 0.1
2019-Jul-12 16:27N 40°50' E 014°16'0 0.0
2019-Jul-12 15:57N 40°50' E 014°16'0 0.0
2019-Jul-12 15:30N 40°50' E 014°16'0 0.0
2019-Jul-12 15:00N 40°50' E 014°16'0 0.0
2019-Jul-12 14:30N 40°50' E 014°16'0 0.0
2019-Jul-12 14:00N 40°50' E 014°16'0 0.0
2019-Jul-12 13:21N 40°50' E 014°16'0 0.0
2019-Jul-12 13:00N 40°50' E 014°16'0 0.0
2019-Jul-12 12:30N 40°50' E 014°16'0 0.0
2019-Jul-12 11:54N 40°50' E 014°16'0 0.0
2019-Jul-12 11:30N 40°50' E 014°16'0 0.0
2019-Jul-12 11:00N 40°50' E 014°16'0 0.0
2019-Jul-12 10:30N 40°50' E 014°16'0 0.0
2019-Jul-12 09:57N 40°50' E 014°16'0 0.0
2019-Jul-12 09:27N 40°50' E 014°16'0 0.0
2019-Jul-12 09:00N 40°50' E 014°16'0 0.0
2019-Jul-12 08:30N 40°50' E 014°16'0 0.0
2019-Jul-12 08:00N 40°50' E 014°16'0 0.0
2019-Jul-12 07:30N 40°50' E 014°16'0 0.0
2019-Jul-12 07:00N 40°50' E 014°16'0 0.0
2019-Jul-12 06:30N 40°50' E 014°16'0 0.0
2019-Jul-12 06:00N 40°50' E 014°16'0 0.0
2019-Jul-12 05:30N 40°50' E 014°16'0 0.0
2019-Jul-12 05:00N 40°50' E 014°16'0 0.0
2019-Jul-12 04:30N 40°50' E 014°16'0 0.6
2019-Jul-12 04:01N 40°50' E 014°16'5 9.5
2019-Jul-12 03:31N 40°46' E 014°14'917.1
2019-Jul-12 03:00N 40°40' E 014°06'816.8
2019-Jul-12 02:30N 40°38' E 013°55'3824.8
2019-Jul-12 01:00N 40°42' E 013°06'9 9.1 230 / 31012.727.0 25.0 29.0
2019-Jul-11 23:57N 40°46' E 012°55'818.7
2019-Jul-11 23:31N 40°48' E 012°44'149 6.4
2019-Jul-11 00:00N 42°30' E 010°18'2728.9 060 / 291011.710.8 26.0 30.0
2019-Jul-10 23:04N 42°47' E 009°50'1419.2
2019-Jul-10 22:20N 42°57' E 009°37'820.8
2019-Jul-10 21:58N 43°05' E 009°35'920.2
2019-Jul-10 21:30N 43°14' E 009°32'1020.0
2019-Jul-10 21:00N 43°24' E 009°33'1020.0
2019-Jul-10 20:31N 43°34' E 009°36'1020.3
2019-Jul-10 20:00N 43°43' E 009°42'1020.0
2019-Jul-10 19:31N 43°52' E 009°48'918.4
2019-Jul-10 19:01N 44°01' E 009°52'611.0
2019-Jul-10 18:30N 44°06' E 009°51'1 1.2
2019-Jul-10 17:58N 44°07' E 009°50'0 0.0
2019-Jul-10 17:28N 44°07' E 009°50'0 0.0
2019-Jul-10 16:58N 44°07' E 009°50'0 0.0
2019-Jul-10 16:28N 44°07' E 009°50'0 0.0
2019-Jul-10 15:58N 44°07' E 009°50'0 0.0
2019-Jul-10 15:28N 44°07' E 009°50'0 0.0
2019-Jul-10 14:58N 44°07' E 009°50'0 0.0
2019-Jul-10 14:28N 44°07' E 009°50'0 0.0
2019-Jul-10 13:55N 44°07' E 009°50'0 0.0
2019-Jul-10 13:28N 44°07' E 009°50'0 0.0
2019-Jul-10 12:58N 44°07' E 009°50'0 0.0
2019-Jul-10 12:28N 44°07' E 009°50'0 0.0
2019-Jul-10 11:58N 44°07' E 009°50'0 0.0
2019-Jul-10 11:28N 44°07' E 009°50'0 0.0
2019-Jul-10 10:58N 44°07' E 009°50'0 0.0
2019-Jul-10 10:28N 44°07' E 009°50'0 0.0
2019-Jul-10 09:58N 44°07' E 009°50'0 0.0
2019-Jul-10 09:28N 44°07' E 009°50'0 0.0
2019-Jul-10 08:58N 44°07' E 009°50'0 0.0
2019-Jul-10 08:28N 44°07' E 009°50'0 0.0
2019-Jul-10 07:58N 44°07' E 009°50'0 0.0
2019-Jul-10 07:28N 44°07' E 009°50'0 0.0
2019-Jul-10 06:58N 44°07' E 009°50'0 0.0
2019-Jul-10 06:28N 44°07' E 009°50'1 2.4
2019-Jul-10 06:00N 44°05' E 009°51'612.8
2019-Jul-10 05:31N 44°01' E 009°56'714.5
2019-Jul-10 05:00N 43°54' E 009°52'1019.7
2019-Jul-10 04:31N 43°50' E 009°39'1019.9
2019-Jul-10 04:01N 43°47' E 009°26'1019.7
2019-Jul-10 03:31N 43°43' E 009°14'1019.4
2019-Jul-10 03:01N 43°39' E 009°02'1019.4
2019-Jul-10 02:31N 43°34' E 008°50'918.8
2019-Jul-10 02:01N 43°31' E 008°38'2518.0
2019-Jul-10 00:36N 43°20' E 008°06'218.2
2019-Jul-10 00:30N 43°19' E 008°04'918.2
2019-Jul-10 00:01N 43°15' E 007°53'3208.3
2019-Jul-10 00:00N 43°12' E 007°54'918.7 010 / 191007.727.0 25.0 28.0
2019-Jul-09 23:31N 43°12' E 007°42'918.0
2019-Jul-09 23:01N 43°08' E 007°30'918.0
2019-Jul-09 22:31N 43°04' E 007°19'918.0
2019-Jul-09 22:01N 43°01' E 007°08'918.2
2019-Jul-09 21:31N 42°57' E 006°56'918.2
2019-Jul-09 21:00N 42°54' E 006°45'917.6
2019-Jul-09 20:30N 42°54' E 006°33'917.8
2019-Jul-09 20:00N 42°54' E 006°21'917.6
2019-Jul-09 19:30N 42°54' E 006°08'44 3.6
2019-Jul-09 07:12N 43°21' E 005°20'0 0.0
2019-Jul-09 06:57N 43°21' E 005°20'1 1.8
2019-Jul-09 06:24N 43°21' E 005°19'712.9
2019-Jul-09 05:53N 43°16' E 005°12'718.5
2019-Jul-09 05:31N 43°11' E 005°06'918.6
2019-Jul-09 05:01N 43°04' E 004°58'1018.2
2019-Jul-09 04:27N 42°55' E 004°50'818.1
2019-Jul-09 04:01N 42°48' E 004°46'918.4
2019-Jul-09 03:31N 42°40' E 004°40'918.5
2019-Jul-09 03:01N 42°32' E 004°33'918.7
2019-Jul-09 02:31N 42°24' E 004°27'917.4
2019-Jul-09 02:00N 42°18' E 004°18'10418.8 280 / 121010.727.0 26.0 28.0
2019-Jul-08 20:28N 40°47' E 003°10'1020.5
2019-Jul-08 19:58N 40°38' E 003°04'7816.3
2019-Jul-08 15:09N 39°25' E 002°27'317.4
2019-Jul-08 15:00N 39°25' E 002°31'815.5
2019-Jul-08 14:30N 39°31' E 002°37'2 4.6
2019-Jul-08 14:00N 39°33' E 002°38'0 0.1
2019-Jul-08 13:30N 39°33' E 002°38'0 0.0
2019-Jul-08 13:00N 39°33' E 002°38'0 0.0
2019-Jul-08 12:30N 39°33' E 002°38'0 0.0
2019-Jul-08 12:00N 39°33' E 002°38'0 0.0
2019-Jul-08 11:30N 39°33' E 002°38'0 0.0
2019-Jul-08 11:00N 39°33' E 002°38'0 0.0
2019-Jul-08 10:30N 39°33' E 002°38'0 0.0
2019-Jul-08 10:00N 39°33' E 002°38'0 0.0
2019-Jul-08 09:30N 39°33' E 002°38'0 0.0
2019-Jul-08 09:00N 39°33' E 002°38'0 0.0
2019-Jul-08 08:30N 39°33' E 002°38'0 0.0
2019-Jul-08 08:00N 39°33' E 002°38'0 0.0
2019-Jul-08 07:30N 39°33' E 002°38'0 0.0
2019-Jul-08 07:00N 39°33' E 002°38'0 0.0
2019-Jul-08 06:30N 39°33' E 002°38'0 0.0
2019-Jul-08 06:00N 39°33' E 002°38'0 0.0
2019-Jul-08 05:30N 39°33' E 002°38'1 1.4
2019-Jul-08 05:00N 39°32' E 002°38'510.3
2019-Jul-08 04:30N 39°28' E 002°35'510.4
2019-Jul-08 04:00N 39°24' E 002°31'5 9.7
2019-Jul-08 03:31N 39°23' E 002°25'510.3
2019-Jul-08 03:00N 39°25' E 002°19'2010.0
2019-Jul-08 01:00N 39°42' E 002°06'8711.5 050 / 161013.710.8 27.0 28.0
2019-Jul-07 17:25N 41°09' E 002°10'511.9
2019-Jul-07 17:01N 41°14' E 002°10'611.2
2019-Jul-07 16:31N 41°20' E 002°10'2 3.9
2019-Jul-07 15:58N 41°22' E 002°11'0 0.0
2019-Jul-07 15:28N 41°22' E 002°11'0 0.0
2019-Jul-07 14:58N 41°22' E 002°11'0 0.0
2019-Jul-07 14:28N 41°22' E 002°11'0 0.0
2019-Jul-07 13:58N 41°22' E 002°11'0 0.0
2019-Jul-07 13:28N 41°22' E 002°11'0 0.0
2019-Jul-07 12:58N 41°22' E 002°11'0 0.0
2019-Jul-07 12:28N 41°22' E 002°11'0 0.0
2019-Jul-07 11:58N 41°22' E 002°11'0 0.0
2019-Jul-07 11:28N 41°22' E 002°11'0 0.0
2019-Jul-07 10:58N 41°22' E 002°11'0 0.0
2019-Jul-07 10:25N 41°22' E 002°11'0 0.0
2019-Jul-07 09:58N 41°22' E 002°11'0 0.0
2019-Jul-07 09:28N 41°22' E 002°11'0 0.0
2019-Jul-07 08:58N 41°22' E 002°11'0 0.0
2019-Jul-07 08:28N 41°22' E 002°11'0 0.0
2019-Jul-07 07:58N 41°22' E 002°11'0 0.0
2019-Jul-07 07:28N 41°22' E 002°11'0 0.0
2019-Jul-07 06:58N 41°22' E 002°11'0 0.0
2019-Jul-07 06:28N 41°22' E 002°11'0 0.0
2019-Jul-07 05:58N 41°22' E 002°11'0 0.0
2019-Jul-07 05:28N 41°22' E 002°11'0 0.0
2019-Jul-07 04:58N 41°22' E 002°11'0 0.0
2019-Jul-07 04:28N 41°22' E 002°11'0 0.0
2019-Jul-07 03:58N 41°22' E 002°11'0 0.0
2019-Jul-07 03:28N 41°22' E 002°11'0 0.1
2019-Jul-07 03:00N 41°22' E 002°11'8 8.0
2019-Jul-07 02:00N 41°14' E 002°15'917.5
2019-Jul-07 01:31N 41°13' E 002°26'2519.1
2019-Jul-07 00:11N 41°14' E 003°00'520.8
2019-Jul-06 23:56N 41°14' E 003°07'920.6
2019-Jul-06 23:30N 41°14' E 003°19'1220.5
2019-Jul-06 22:56N 41°14' E 003°34'1020.2
2019-Jul-06 22:26N 41°15' E 003°48'819.9
2019-Jul-06 22:01N 41°15' E 003°59'918.6
2019-Jul-06 21:30N 41°15' E 004°11'3318.6
2019-Jul-06 19:45N 41°15' E 004°55'417.8
2019-Jul-06 19:30N 41°15' E 005°01'917.9
2019-Jul-06 19:00N 41°15' E 005°12'917.8
2019-Jul-06 18:31N 41°15' E 005°24'5517.1
2019-Jul-06 15:17N 41°15' E 006°38'517.1
2019-Jul-06 14:58N 41°15' E 006°45'2217.2
2019-Jul-06 13:43N 41°16' E 007°14'417.3
2019-Jul-06 13:30N 41°16' E 007°18'917.4
2019-Jul-06 13:00N 41°16' E 007°30'1317.3
2019-Jul-06 12:15N 41°16' E 007°47'1017.3
2019-Jul-06 11:39N 41°16' E 008°01'317.3
2019-Jul-06 11:30N 41°16' E 008°04'917.4
2019-Jul-06 11:00N 41°16' E 008°16'917.6
2019-Jul-06 10:30N 41°16' E 008°28'917.7
2019-Jul-06 10:00N 41°16' E 008°39'917.6
2019-Jul-06 09:30N 41°17' E 008°51'816.4
2019-Jul-06 09:00N 41°18' E 009°02'2211.5
2019-Jul-06 07:06N 41°22' E 009°31'112.1
2019-Jul-06 07:00N 41°22' E 009°32'814.0
2019-Jul-06 06:28N 41°22' E 009°42'916.7
2019-Jul-06 05:54N 41°20' E 009°54'1917.0
2019-Jul-06 04:48N 41°16' E 010°19'1917.1
2019-Jul-06 03:40N 41°11' E 010°44'316.9
2019-Jul-06 03:31N 41°11' E 010°47'816.9
2019-Jul-06 03:00N 41°08' E 010°58'1217.1
2019-Jul-06 02:18N 41°05' E 011°14'1417.4
2019-Jul-06 01:30N 41°02' E 011°31'  
Track history (hours):
 
Tides and Currents Weather Stations Pressure Air Temp Water Temp Dewpoint Dewpoint Depression Visibility Wind Speed Wind Dir Waves Ship Positions

Oasis of the Seas

Last reported at 2019-Jul-16 01:00 UTC. Time now 2019-Jul-16 10:29 UTC.
Position N 41°54' E 004°00'.

Length 360 m; draft 9.3 m.

Type: Passenger vessel. MMSI: 311020600.

Wind from 350 at 20 knots

Barometer 1013.7 mb
Air temperature 25.0 ° C
Visibility: greater than 27.0 NM
Water temperature 26.0 ° C

Date/timePositionNaut miles runAvg speedWind from/ knotsBaromVisibWave heightAir tempDewpointWater temp
2019-Jul-16 01:00N 41°54' E 004°00'16416.4 350 / 201013.727.0 25.0 26.0
2019-Jul-15 15:01N 39°26' E 002°29'017.9
2019-Jul-15 15:00N 39°26' E 002°29'815.3
2019-Jul-15 14:30N 39°30' E 002°37'3 5.7
2019-Jul-15 14:00N 39°33' E 002°38'0 0.3
2019-Jul-15 13:28N 39°33' E 002°38'0 0.0
2019-Jul-15 12:58N 39°33' E 002°38'0 0.0
2019-Jul-15 12:28N 39°33' E 002°38'0 0.0
2019-Jul-15 11:58N 39°33' E 002°38'0 0.0
2019-Jul-15 11:28N 39°33' E 002°38'0 0.0
2019-Jul-15 10:58N 39°33' E 002°38'0 0.0
2019-Jul-15 10:28N 39°33' E 002°38'0 0.0
2019-Jul-15 09:58N 39°33' E 002°38'0 0.0
2019-Jul-15 09:28N 39°33' E 002°38'0 0.0
2019-Jul-15 08:58N 39°33' E 002°38'0 0.0
2019-Jul-15 08:28N 39°33' E 002°38'0 0.0
2019-Jul-15 07:58N 39°33' E 002°38'0 0.0
2019-Jul-15 07:28N 39°33' E 002°38'0 0.0
2019-Jul-15 06:58N 39°33' E 002°38'0 0.0
2019-Jul-15 06:28N 39°33' E 002°38'0 0.0
2019-Jul-15 05:58N 39°33' E 002°38'0 0.1
2019-Jul-15 05:30N 39°33' E 002°38'1 1.5
2019-Jul-15 05:00N 39°32' E 002°38'510.6
2019-Jul-15 04:30N 39°28' E 002°35'510.2
2019-Jul-15 04:00N 39°24' E 002°31'510.4
2019-Jul-15 03:30N 39°22' E 002°24'610.8
2019-Jul-15 02:57N 39°26' E 002°18'19 9.7
2019-Jul-15 01:00N 39°42' E 002°06'100 8.4 260 / 151011.710.8 25.0 28.0
2019-Jul-14 13:08N 41°22' E 002°11'0 0.0
2019-Jul-14 12:59N 41°22' E 002°11'0 0.0
2019-Jul-14 12:29N 41°22' E 002°11'0 0.0
2019-Jul-14 11:59N 41°22' E 002°11'0 0.0
2019-Jul-14 11:29N 41°22' E 002°11'0 0.0
2019-Jul-14 10:56N 41°22' E 002°11'0 0.0
2019-Jul-14 10:29N 41°22' E 002°11'0 0.0
2019-Jul-14 09:59N 41°22' E 002°11'0 0.0
2019-Jul-14 09:29N 41°22' E 002°11'0 0.0
2019-Jul-14 08:59N 41°22' E 002°11'60 6.0
2019-Jul-13 23:04N 41°14' E 003°29'120.4
2019-Jul-13 23:00N 41°14' E 003°31'6347.2
2019-Jul-13 23:00N 41°12' E 003°24'3023.1 300 / 81011.727.0 25.0 28.0
2019-Jul-13 21:42N 41°14' E 004°04'417.3
2019-Jul-13 21:28N 41°14' E 004°09'32416.6
2019-Jul-13 02:00N 41°00' E 011°18'12316.3 300 / 261009.710.8 25.0 28.0
2019-Jul-12 18:25N 40°36' E 013°58'818.0
2019-Jul-12 18:00N 40°40' E 014°07'917.2
2019-Jul-12 17:30N 40°46' E 014°14'4 8.7
2019-Jul-12 17:00N 40°50' E 014°16'0 0.1
2019-Jul-12 16:27N 40°50' E 014°16'0 0.0
2019-Jul-12 15:57N 40°50' E 014°16'0 0.0
2019-Jul-12 15:30N 40°50' E 014°16'0 0.0
2019-Jul-12 15:00N 40°50' E 014°16'0 0.0
2019-Jul-12 14:30N 40°50' E 014°16'0 0.0
2019-Jul-12 14:00N 40°50' E 014°16'0 0.0
2019-Jul-12 13:21N 40°50' E 014°16'0 0.0
2019-Jul-12 13:00N 40°50' E 014°16'0 0.0
2019-Jul-12 12:30N 40°50' E 014°16'0 0.0
2019-Jul-12 11:54N 40°50' E 014°16'0 0.0
2019-Jul-12 11:30N 40°50' E 014°16'0 0.0
2019-Jul-12 11:00N 40°50' E 014°16'0 0.0
2019-Jul-12 10:30N 40°50' E 014°16'0 0.0
2019-Jul-12 09:57N 40°50' E 014°16'0 0.0
2019-Jul-12 09:27N 40°50' E 014°16'0 0.0
2019-Jul-12 09:00N 40°50' E 014°16'0 0.0
2019-Jul-12 08:30N 40°50' E 014°16'0 0.0
2019-Jul-12 08:00N 40°50' E 014°16'0 0.0
2019-Jul-12 07:30N 40°50' E 014°16'0 0.0
2019-Jul-12 07:00N 40°50' E 014°16'0 0.0
2019-Jul-12 06:30N 40°50' E 014°16'0 0.0
2019-Jul-12 06:00N 40°50' E 014°16'0 0.0
2019-Jul-12 05:30N 40°50' E 014°16'0 0.0
2019-Jul-12 05:00N 40°50' E 014°16'0 0.0
2019-Jul-12 04:30N 40°50' E 014°16'0 0.6
2019-Jul-12 04:01N 40°50' E 014°16'5 9.5
2019-Jul-12 03:31N 40°46' E 014°14'917.1
2019-Jul-12 03:00N 40°40' E 014°06'816.8
2019-Jul-12 02:30N 40°38' E 013°55'3824.8
2019-Jul-12 01:00N 40°42' E 013°06'9 9.1 230 / 31012.727.0 25.0 29.0
2019-Jul-11 23:57N 40°46' E 012°55'818.7
2019-Jul-11 23:31N 40°48' E 012°44'149 6.4
2019-Jul-11 00:00N 42°30' E 010°18'2728.9 060 / 291011.710.8 26.0 30.0
2019-Jul-10 23:04N 42°47' E 009°50'1419.2
2019-Jul-10 22:20N 42°57' E 009°37'820.8
2019-Jul-10 21:58N 43°05' E 009°35'920.2
2019-Jul-10 21:30N 43°14' E 009°32'1020.0
2019-Jul-10 21:00N 43°24' E 009°33'1020.0
2019-Jul-10 20:31N 43°34' E 009°36'1020.3
2019-Jul-10 20:00N 43°43' E 009°42'1020.0
2019-Jul-10 19:31N 43°52' E 009°48'918.4
2019-Jul-10 19:01N 44°01' E 009°52'611.0
2019-Jul-10 18:30N 44°06' E 009°51'1 1.2
2019-Jul-10 17:58N 44°07' E 009°50'0 0.0
2019-Jul-10 17:28N 44°07' E 009°50'0 0.0
2019-Jul-10 16:58N 44°07' E 009°50'0 0.0
2019-Jul-10 16:28N 44°07' E 009°50'0 0.0
2019-Jul-10 15:58N 44°07' E 009°50'0 0.0
2019-Jul-10 15:28N 44°07' E 009°50'0 0.0
2019-Jul-10 14:58N 44°07' E 009°50'0 0.0
2019-Jul-10 14:28N 44°07' E 009°50'0 0.0
2019-Jul-10 13:55N 44°07' E 009°50'0 0.0
2019-Jul-10 13:28N 44°07' E 009°50'0 0.0
2019-Jul-10 12:58N 44°07' E 009°50'0 0.0
2019-Jul-10 12:28N 44°07' E 009°50'0 0.0
2019-Jul-10 11:58N 44°07' E 009°50'0 0.0
2019-Jul-10 11:28N 44°07' E 009°50'0 0.0
2019-Jul-10 10:58N 44°07' E 009°50'0 0.0
2019-Jul-10 10:28N 44°07' E 009°50'0 0.0
2019-Jul-10 09:58N 44°07' E 009°50'0 0.0
2019-Jul-10 09:28N 44°07' E 009°50'0 0.0
2019-Jul-10 08:58N 44°07' E 009°50'0 0.0
2019-Jul-10 08:28N 44°07' E 009°50'0 0.0
2019-Jul-10 07:58N 44°07' E 009°50'0 0.0
2019-Jul-10 07:28N 44°07' E 009°50'0 0.0
2019-Jul-10 06:58N 44°07' E 009°50'0 0.0
2019-Jul-10 06:28N 44°07' E 009°50'1 2.4
2019-Jul-10 06:00N 44°05' E 009°51'612.8
2019-Jul-10 05:31N 44°01' E 009°56'714.5
2019-Jul-10 05:00N 43°54' E 009°52'1019.7
2019-Jul-10 04:31N 43°50' E 009°39'1019.9
2019-Jul-10 04:01N 43°47' E 009°26'1019.7
2019-Jul-10 03:31N 43°43' E 009°14'1019.4
2019-Jul-10 03:01N 43°39' E 009°02'1019.4
2019-Jul-10 02:31N 43°34' E 008°50'918.8
2019-Jul-10 02:01N 43°31' E 008°38'2518.0
2019-Jul-10 00:36N 43°20' E 008°06'218.2
2019-Jul-10 00:30N 43°19' E 008°04'918.2
2019-Jul-10 00:01N 43°15' E 007°53'3208.3
2019-Jul-10 00:00N 43°12' E 007°54'918.7 010 / 191007.727.0 25.0 28.0
2019-Jul-09 23:31N 43°12' E 007°42'918.0
2019-Jul-09 23:01N 43°08' E 007°30'918.0
2019-Jul-09 22:31N 43°04' E 007°19'918.0
2019-Jul-09 22:01N 43°01' E 007°08'918.2
2019-Jul-09 21:31N 42°57' E 006°56'918.2
2019-Jul-09 21:00N 42°54' E 006°45'917.6
2019-Jul-09 20:30N 42°54' E 006°33'917.8
2019-Jul-09 20:00N 42°54' E 006°21'917.6
2019-Jul-09 19:30N 42°54' E 006°08'44 3.6
2019-Jul-09 07:12N 43°21' E 005°20'0 0.0
2019-Jul-09 06:57N 43°21' E 005°20'1 1.8
2019-Jul-09 06:24N 43°21' E 005°19'712.9
2019-Jul-09 05:53N 43°16' E 005°12'718.5
2019-Jul-09 05:31N 43°11' E 005°06'918.6
2019-Jul-09 05:01N 43°04' E 004°58'1018.2
2019-Jul-09 04:27N 42°55' E 004°50'818.1
2019-Jul-09 04:01N 42°48' E 004°46'918.4
2019-Jul-09 03:31N 42°40' E 004°40'918.5
2019-Jul-09 03:01N 42°32' E 004°33'918.7
2019-Jul-09 02:31N 42°24' E 004°27'917.4
2019-Jul-09 02:00N 42°18' E 004°18'10418.8 280 / 121010.727.0 26.0 28.0
2019-Jul-08 20:28N 40°47' E 003°10'1020.5
2019-Jul-08 19:58N 40°38' E 003°04'7816.3
2019-Jul-08 15:09N 39°25' E 002°27'317.4
2019-Jul-08 15:00N 39°25' E 002°31'815.5
2019-Jul-08 14:30N 39°31' E 002°37'2 4.6
2019-Jul-08 14:00N 39°33' E 002°38'0 0.1
2019-Jul-08 13:30N 39°33' E 002°38'0 0.0
2019-Jul-08 13:00N 39°33' E 002°38'0 0.0
2019-Jul-08 12:30N 39°33' E 002°38'0 0.0
2019-Jul-08 12:00N 39°33' E 002°38'0 0.0
2019-Jul-08 11:30N 39°33' E 002°38'0 0.0
2019-Jul-08 11:00N 39°33' E 002°38'0 0.0
2019-Jul-08 10:30N 39°33' E 002°38'0 0.0
2019-Jul-08 10:00N 39°33' E 002°38'0 0.0
2019-Jul-08 09:30N 39°33' E 002°38'0 0.0
2019-Jul-08 09:00N 39°33' E 002°38'0 0.0
2019-Jul-08 08:30N 39°33' E 002°38'0 0.0
2019-Jul-08 08:00N 39°33' E 002°38'0 0.0
2019-Jul-08 07:30N 39°33' E 002°38'0 0.0
2019-Jul-08 07:00N 39°33' E 002°38'0 0.0
2019-Jul-08 06:30N 39°33' E 002°38'0 0.0
2019-Jul-08 06:00N 39°33' E 002°38'0 0.0
2019-Jul-08 05:30N 39°33' E 002°38'1 1.4
2019-Jul-08 05:00N 39°32' E 002°38'510.3
2019-Jul-08 04:30N 39°28' E 002°35'510.4
2019-Jul-08 04:00N 39°24' E 002°31'5 9.7
2019-Jul-08 03:31N 39°23' E 002°25'510.3
2019-Jul-08 03:00N 39°25' E 002°19'2010.0
2019-Jul-08 01:00N 39°42' E 002°06'8711.5 050 / 161013.710.8 27.0 28.0
2019-Jul-07 17:25N 41°09' E 002°10'511.9
2019-Jul-07 17:01N 41°14' E 002°10'611.2
2019-Jul-07 16:31N 41°20' E 002°10'2 3.9
2019-Jul-07 15:58N 41°22' E 002°11'0 0.0
2019-Jul-07 15:28N 41°22' E 002°11'0 0.0
2019-Jul-07 14:58N 41°22' E 002°11'0 0.0
2019-Jul-07 14:28N 41°22' E 002°11'0 0.0
2019-Jul-07 13:58N 41°22' E 002°11'0 0.0
2019-Jul-07 13:28N 41°22' E 002°11'0 0.0
2019-Jul-07 12:58N 41°22' E 002°11'0 0.0
2019-Jul-07 12:28N 41°22' E 002°11'0 0.0
2019-Jul-07 11:58N 41°22' E 002°11'0 0.0
2019-Jul-07 11:28N 41°22' E 002°11'0 0.0
2019-Jul-07 10:58N 41°22' E 002°11'0 0.0
2019-Jul-07 10:25N 41°22' E 002°11'0 0.0
2019-Jul-07 09:58N 41°22' E 002°11'0 0.0
2019-Jul-07 09:28N 41°22' E 002°11'0 0.0
2019-Jul-07 08:58N 41°22' E 002°11'0 0.0
2019-Jul-07 08:28N 41°22' E 002°11'0 0.0
2019-Jul-07 07:58N 41°22' E 002°11'0 0.0
2019-Jul-07 07:28N 41°22' E 002°11'0 0.0
2019-Jul-07 06:58N 41°22' E 002°11'0 0.0
2019-Jul-07 06:28N 41°22' E 002°11'0 0.0
2019-Jul-07 05:58N 41°22' E 002°11'0 0.0
2019-Jul-07 05:28N 41°22' E 002°11'0 0.0
2019-Jul-07 04:58N 41°22' E 002°11'0 0.0
2019-Jul-07 04:28N 41°22' E 002°11'0 0.0
2019-Jul-07 03:58N 41°22' E 002°11'0 0.0
2019-Jul-07 03:28N 41°22' E 002°11'0 0.1
2019-Jul-07 03:00N 41°22' E 002°11'8 8.0
2019-Jul-07 02:00N 41°14' E 002°15'917.5
2019-Jul-07 01:31N 41°13' E 002°26'2519.1
2019-Jul-07 00:11N 41°14' E 003°00'520.8
2019-Jul-06 23:56N 41°14' E 003°07'920.6
2019-Jul-06 23:30N 41°14' E 003°19'1220.5
2019-Jul-06 22:56N 41°14' E 003°34'1020.2
2019-Jul-06 22:26N 41°15' E 003°48'819.9
2019-Jul-06 22:01N 41°15' E 003°59'918.6
2019-Jul-06 21:30N 41°15' E 004°11'3318.6
2019-Jul-06 19:45N 41°15' E 004°55'417.8
2019-Jul-06 19:30N 41°15' E 005°01'917.9
2019-Jul-06 19:00N 41°15' E 005°12'917.8
2019-Jul-06 18:31N 41°15' E 005°24'5517.1
2019-Jul-06 15:17N 41°15' E 006°38'517.1
2019-Jul-06 14:58N 41°15' E 006°45'2217.2
2019-Jul-06 13:43N 41°16' E 007°14'417.3
2019-Jul-06 13:30N 41°16' E 007°18'917.4
2019-Jul-06 13:00N 41°16' E 007°30'1317.3
2019-Jul-06 12:15N 41°16' E 007°47'1017.3
2019-Jul-06 11:39N 41°16' E 008°01'317.3
2019-Jul-06 11:30N 41°16' E 008°04'917.4
2019-Jul-06 11:00N 41°16' E 008°16'917.6
2019-Jul-06 10:30N 41°16' E 008°28'917.7
2019-Jul-06 10:00N 41°16' E 008°39'917.6
2019-Jul-06 09:30N 41°17' E 008°51'816.4
2019-Jul-06 09:00N 41°18' E 009°02'2211.5
2019-Jul-06 07:06N 41°22' E 009°31'112.1
2019-Jul-06 07:00N 41°22' E 009°32'814.0
2019-Jul-06 06:28N 41°22' E 009°42'916.7
2019-Jul-06 05:54N 41°20' E 009°54'1917.0
2019-Jul-06 04:48N 41°16' E 010°19'1917.1
2019-Jul-06 03:40N 41°11' E 010°44'316.9
2019-Jul-06 03:31N 41°11' E 010°47'816.9
2019-Jul-06 03:00N 41°08' E 010°58'1217.1
2019-Jul-06 02:18N 41°05' E 011°14'1417.4
2019-Jul-06 01:30N 41°02' E 011°31'  

Dump ship's entire track history